Time;durP1;ratioP1;P1;durP2;ratioP2;P2;SDS_P1;SDS_P2;PMS_P1;PMS_P2;Temp;Humidity;BMP_temperature;BMP_pressure;BME280_temperature;BME280_humidity;BME280_pressure;Samples;Min_cycle;Max_cycle;Signal;HPM_P1;HPM_P2
2022/01/24 00:28:29;;;;;;;20.60;9.23;;;;;;;-4.11;93.10;100775.03;31238971;28;20137;-86
2022/01/24 00:43:37;;;;;;;15.57;8.43;;;;;;;-4.24;94.11;100770.59;31242885;28;20128;-86
2022/01/24 00:58:39;;;;;;;12.17;8.37;;;;;;;-4.20;94.32;100784.81;31260253;28;20060;-86
2022/01/24 01:29:18;;;;;;;10.57;6.23;;;;;;;-4.19;94.04;100789.03;31221100;28;20068;-85
2022/01/24 01:59:50;;;;;;;13.00;8.10;;;;;;;-4.17;94.81;100771.72;31242124;28;20064;-85
2022/01/24 02:14:57;;;;;;;11.60;6.57;;;;;;;-4.25;94.99;100769.81;31239208;28;20145;-85
2022/01/24 03:00:55;;;;;;;17.70;7.67;;;;;;;-4.35;94.45;100770.06;31234303;28;20081;-87
2022/01/24 03:15:59;;;;;;;16.50;8.13;;;;;;;-4.35;94.20;100774.59;31289529;28;20465;-84
2022/01/24 03:31:01;;;;;;;12.07;5.57;;;;;;;-4.36;93.62;100773.81;31231602;28;20736;-86
2022/01/24 04:01:11;;;;;;;5.60;4.97;;;;;;;-4.54;95.70;100815.31;31234489;28;20103;-87
2022/01/24 04:16:26;;;;;;;11.93;5.97;;;;;;;-4.52;96.59;100858.19;31235610;28;20096;-76
2022/01/24 04:31:29;;;;;;;12.03;6.60;;;;;;;-4.50;98.36;100874.56;31239096;28;20050;-76
2022/01/24 05:02:11;;;;;;;12.13;7.17;;;;;;;-4.69;100.00;100891.66;31071659;28;20491;-75
2022/01/24 05:32:34;;;;;;;12.93;5.83;;;;;;;-4.69;100.00;100895.09;31214691;28;20038;-75
2022/01/24 05:47:36;;;;;;;14.43;8.13;;;;;;;-4.64;100.00;100908.25;31248907;28;20144;-77
2022/01/24 06:02:38;;;;;;;9.37;6.93;;;;;;;-4.79;100.00;100924.47;31183766;28;20056;-77
2022/01/24 06:17:40;;;;;;;12.50;7.27;;;;;;;-4.67;100.00;100937.19;31200734;28;20495;-78
2022/01/24 06:32:42;;;;;;;11.10;6.27;;;;;;;-4.69;100.00;100940.13;31194779;28;20132;-76
2022/01/24 06:47:44;;;;;;;15.10;5.40;;;;;;;-4.68;100.00;100941.72;31207376;28;20214;-74
2022/01/24 07:02:46;;;;;;;11.57;6.33;;;;;;;-4.61;100.00;100947.41;31069551;28;20049;-74
2022/01/24 07:32:50;;;;;;;9.70;5.83;;;;;;;-4.62;99.53;100959.09;31127244;28;20107;-83
2022/01/24 07:47:53;;;;;;;10.43;5.33;;;;;;;-4.52;96.39;100956.25;31094080;28;20558;-80
2022/01/24 08:02:57;;;;;;;16.40;7.90;;;;;;;-4.28;95.76;100976.44;31063390;28;20138;-81
2022/01/24 08:17:59;;;;;;;6.70;5.77;;;;;;;-4.25;96.13;100970.53;31085985;28;20058;-82
2022/01/24 08:33:01;;;;;;;9.57;6.03;;;;;;;-4.21;97.40;100982.09;31079071;28;20138;-83
2022/01/24 08:48:04;;;;;;;8.73;5.20;;;;;;;-3.98;96.42;100977.63;31131414;28;20056;-84
2022/01/24 09:03:06;;;;;;;8.83;5.60;;;;;;;-3.40;93.35;100969.63;31122440;28;20045;-83
2022/01/24 09:18:08;;;;;;;9.20;5.60;;;;;;;-3.36;92.93;100975.13;31064093;28;20058;-81
2022/01/24 09:33:12;;;;;;;14.87;5.60;;;;;;;-3.34;95.47;100973.72;31096374;28;20086;-82
2022/01/24 09:48:16;;;;;;;13.73;5.97;;;;;;;-3.47;95.48;100991.28;31118155;28;20092;-74
2022/01/24 10:03:18;;;;;;;14.03;6.43;;;;;;;-3.35;95.01;100987.31;31057596;28;20062;-74
2022/01/24 10:18:40;;;;;;;7.57;4.57;;;;;;;-3.46;91.83;100974.28;31113598;28;20054;-75
2022/01/24 10:34:10;;;;;;;6.47;4.20;;;;;;;-3.30;92.14;100979.97;31097088;28;20037;-76
2022/01/24 10:49:15;;;;;;;10.63;6.20;;;;;;;-3.33;91.61;100979.81;31094684;28;20517;-75
2022/01/24 11:04:18;;;;;;;10.87;6.03;;;;;;;-2.94;90.26;100981.75;31073704;28;20523;-75
2022/01/24 11:19:30;;;;;;;9.20;5.13;;;;;;;-2.96;89.54;100973.28;31062856;28;20482;-76
2022/01/24 11:34:32;;;;;;;14.37;5.90;;;;;;;-2.77;88.03;100987.91;31082933;28;20133;-75
2022/01/24 11:49:36;;;;;;;13.17;5.87;;;;;;;-2.92;88.27;100976.91;31073760;28;20080;-84
2022/01/24 12:04:56;;;;;;;7.97;4.27;;;;;;;-2.97;88.51;100987.66;31105070;28;20050;-81
2022/01/24 12:19:58;;;;;;;4.47;3.20;;;;;;;-3.11;90.29;100993.84;31108436;28;20050;-84
2022/01/24 12:34:59;;;;;;;11.67;6.53;;;;;;;-3.18;90.98;101009.44;31145531;28;20089;-82
2022/01/24 12:50:02;;;;;;;14.10;5.83;;;;;;;-3.42;90.63;101008.97;31150364;28;20053;-83
2022/01/24 13:05:10;;;;;;;7.03;4.93;;;;;;;-3.53;88.47;101003.09;31113142;28;20046;-84
2022/01/24 13:35:39;;;;;;;9.00;4.77;;;;;;;-3.57;89.07;101033.22;31085166;28;20551;-84
2022/01/24 13:50:49;;;;;;;13.20;4.67;;;;;;;-3.68;89.86;101037.19;31139025;28;20765;-84
2022/01/24 14:06:17;;;;;;;12.23;5.33;;;;;;;-3.88;93.30;101044.50;31115520;28;20049;-85
2022/01/24 14:21:18;;;;;;;7.07;5.07;;;;;;;-4.04;94.34;101056.53;31043903;28;20562;-82
2022/01/24 14:36:20;;;;;;;9.80;4.10;;;;;;;-4.24;97.58;101064.88;31105460;28;20132;-84
2022/01/24 14:51:27;;;;;;;6.27;4.47;;;;;;;-4.38;99.20;101077.34;31125298;28;20049;-81
2022/01/24 15:06:29;;;;;;;5.60;4.03;;;;;;;-4.31;97.05;101077.75;31093109;28;20092;-85
2022/01/24 15:36:56;;;;;;;11.27;5.87;;;;;;;-4.24;96.50;101091.38;31112616;28;20080;-84
2022/01/24 15:51:59;;;;;;;4.43;4.03;;;;;;;-4.66;95.45;101093.22;31096148;28;20057;-85
2022/01/24 16:07:03;;;;;;;6.50;3.87;;;;;;;-4.67;95.44;101080.28;31062022;28;20050;-83
2022/01/24 16:37:35;;;;;;;8.17;5.13;;;;;;;-4.72;96.16;101104.97;31136870;28;20053;-84
2022/01/24 16:52:37;;;;;;;7.17;4.53;;;;;;;-4.63;96.71;101119.13;31116018;28;20495;-84
2022/01/24 17:07:38;;;;;;;8.40;4.63;;;;;;;-4.74;99.49;101117.75;31145317;28;20555;-84
2022/01/24 17:22:41;;;;;;;9.27;4.30;;;;;;;-4.87;99.45;101134.38;31112523;28;20061;-83
2022/01/24 17:37:43;;;;;;;14.13;5.47;;;;;;;-4.84;100.00;101139.09;31116744;28;20053;-86
2022/01/24 17:52:45;;;;;;;9.80;5.37;;;;;;;-4.85;98.63;101148.13;31091952;28;20054;-82
2022/01/24 18:07:49;;;;;;;9.57;4.33;;;;;;;-5.03;98.88;101156.91;31120178;28;20049;-84
2022/01/24 18:22:51;;;;;;;10.30;5.90;;;;;;;-5.10;99.43;101151.16;31145574;28;20411;-84
2022/01/24 18:37:54;;;;;;;12.93;4.93;;;;;;;-5.32;98.70;101160.47;31100976;28;20076;-85
2022/01/24 18:52:59;;;;;;;13.30;4.73;;;;;;;-5.36;97.41;101151.53;31082482;28;20419;-85
2022/01/24 19:08:04;;;;;;;;;;;;;;;-5.44;97.38;101168.06;31103099;28;20049;-85
2022/01/24 19:23:23;;;;;;;6.87;5.27;;;;;;;-5.31;98.32;101154.09;31074460;28;19922;-85
2022/01/24 19:38:26;;;;;;;9.20;5.67;;;;;;;-5.13;97.59;101141.16;31081163;28;20081;-86
2022/01/24 19:53:28;;;;;;;10.13;4.90;;;;;;;-5.68;93.97;101138.22;31105316;28;20046;-86
2022/01/24 20:08:30;;;;;;;12.83;6.00;;;;;;;-6.03;93.73;101144.75;31062852;28;20138;-84
2022/01/24 20:23:33;;;;;;;8.97;5.43;;;;;;;-5.98;93.09;101153.41;31151338;28;20043;-84
2022/01/24 20:38:34;;;;;;;7.97;3.80;;;;;;;-6.09;89.78;101146.66;31124279;28;20140;-84
2022/01/24 20:53:40;;;;;;;9.37;5.43;;;;;;;-6.06;88.03;101164.59;31128086;28;20041;-81
2022/01/24 21:08:41;;;;;;;7.40;5.67;;;;;;;-6.18;88.44;101164.22;31119883;28;20095;-84
2022/01/24 21:23:44;;;;;;;6.93;4.03;;;;;;;-6.25;87.14;101163.75;31124405;28;20070;-85
2022/01/24 21:38:48;;;;;;;6.43;3.73;;;;;;;-6.41;87.83;101170.25;31150695;28;20052;-79
2022/01/24 21:53:55;;;;;;;8.20;5.57;;;;;;;-6.44;89.34;101168.16;31093075;28;20048;-83
2022/01/24 22:08:56;;;;;;;9.60;5.23;;;;;;;-6.31;89.76;101163.00;31080142;28;20054;-77
2022/01/24 22:23:59;;;;;;;10.43;5.70;;;;;;;-6.45;89.08;101174.50;31056170;28;20427;-76
2022/01/24 22:39:01;;;;;;;11.47;4.73;;;;;;;-6.38;89.14;101169.69;31054039;28;20055;-76
2022/01/24 22:54:02;;;;;;;11.23;6.20;;;;;;;-6.61;90.70;101150.06;31112609;28;20052;-75
2022/01/24 23:09:04;;;;;;;9.57;6.07;;;;;;;-6.56;90.15;101142.91;31116023;28;20061;-75
2022/01/24 23:24:09;;;;;;;8.50;5.83;;;;;;;-6.65;89.88;101139.31;31108429;28;20054;-75
2022/01/24 23:39:11;;;;;;;6.40;4.10;;;;;;;-6.60;89.59;101139.22;31075695;28;20070;-76
2022/01/24 23:54:15;;;;;;;11.67;5.73;;;;;;;-6.59;89.01;101135.53;31116720;28;20081;-77
